Port Alsworth, AK

9:02 PM AKDT on April 29, 2017 (GMT -0800)
Port Alsworth | | Change Station

Elev 266 ft 60.20 °N, 154.30 °W | Updated 2 hours ago

Clear
Clear
52 °F
Feels Like 52 °F
N
6
Wind Variable Wind from ENE

Today
High -- | Low -- °F
--% Chance of Precip.
Yesterday
High -- | Low -- °F
Precip. -- in
Pressure 29.80 in
Visibility 30.0 miles
Clouds Scattered Clouds 8000 ft
Mostly Cloudy 20000 ft
Dew Point 36 °F
Humidity 54%
Rainfall 0.00 in
Snow Depth Not available.
6:18 AM 10:12 PM
Waxing Crescent, 19% visible
METAR PALJ 300257Z 07005KT 30SM SCT080 BKN200 11/02 A2980 RMK LAST EST PASS OPEN NOSPECI
Pressure 29.80 in
Visibility 30.0 miles
Clouds Scattered Clouds 8000 ft
Mostly Cloudy 20000 ft
Dew Point 36 °F
Humidity 54%
Rainfall 0.00 in
Snow Depth Not available.
6:18 AM 10:12 PM
Waxing Crescent, 19% visible
METAR PALJ 300257Z 07005KT 30SM SCT080 BKN200 11/02 A2980 RMK LAST EST PASS OPEN NOSPECI

Get Severe Weather Alerts

Thanks for signing up!

Be on the lookout for a verification email in your inbox.

You'll start receiving the daily forecast at 8 AM.

×

10-Day Weather Forecast

Almanac

Astronomy

Apr. 29, 2017 Rise Set
Actual Time
Civil Twilight
Nautical Twilight
Astronomical Twilight
Moon
Length of Visible Light
Length of Day
Tomorrow will be .
, % of the Moon is Illuminated

Today's Extremes

State Highs State Lows

Community

WunderPhotos

WunderBlog® & News

Nearby

Air Quality

  Air Quality AQ Index Pollutant
Not available.

Snow Depth

Station Depth Elevation

Earthquake Activity

City Distance Mag. Time & Date
Minimum magnitude displayed is 2.5.

Coastal Water Temperatures

Place Temperature

Stations

Nearby Weather Stations

Station Location Temp. Windchill Dew Point Humidity Wind Precip. Elev Updated Type
                   

Watches & Warnings

There are currently no watches in effect.